W4IIA-13 Weather Reports


Display with metric or nautical units.
time (UTC)temp
F
wind
direction
speed
MPH
gust
MPH
rain 1hr
in
rain 24hr
in
rain mn
in
humidity
%
barometer
mb
20200810105833 71 186 0.0 0.0 0.00 0.00 0.00 94 1023.2
20200810103833 71 186 0.0 0.0 0.00 0.00 0.00 94 1023.2
20200810101918 71 181 0.0 0.0 0.00 0.00 0.00 94 1023.3
20200810101832 71 181 0.0 0.0 0.00 0.00 0.00 94 1023.3
20200810095909 71 181 0.0 0.0 0.00 0.00 0.00 94 1023.2
20200810095831 71 181 0.0 0.0 0.00 0.00 0.00 94 1023.2
20200810093831 71 181 0.0 0.0 0.00 0.00 0.00 94 1023.1
20200810091907 72 180 0.0 0.0 0.00 0.00 0.00 94 1023.3
20200810091830 72 180 0.0 0.0 0.00 0.00 0.00 94 1023.3
20200810085829 72 181 0.0 0.0 0.00 0.00 0.00 94 1023.4
20200810083829 72 181 0.0 0.0 0.00 0.00 0.00 94 1023.5
20200810081828 72 181 0.0 0.0 0.00 0.00 0.00 94 1023.7
20200810075828 72 181 0.0 0.0 0.00 0.00 0.00 94 1023.8
20200810073932 72 181 0.0 0.0 0.00 0.00 0.00 94 1023.8
20200810073827 72 181 0.0 0.0 0.00 0.00 0.00 94 1023.8
20200810071826 72 181 0.0 0.0 0.00 0.00 0.00 94 1023.7
20200810065826 72 181 0.0 0.0 0.00 0.00 0.00 94 1023.7
20200810063826 72 181 0.0 0.0 0.00 0.00 0.00 94 1023.6
20200810061824 73 181 0.0 0.0 0.00 0.00 0.00 94 1023.7
20200810055827 73 181 0.0 0.0 0.00 0.00 0.00 94 1023.6
20200810053823 73 180 0.0 0.0 0.00 0.00 0.00 94 1023.7
20200810051823 73 178 0.0 0.0 0.00 0.00 0.00 94 1023.6
20200810045919 73 178 0.0 0.0 0.00 0.00 0.00 94 1023.7
20200810045822 73 178 0.0 0.0 0.00 0.00 0.00 94 1023.7
20200810043823 73 178 0.0 0.0 0.00 0.00 0.00 94 1023.9
20200810041900 73 178 0.0 0.0 0.00 0.00 0.00 94 1024.0
20200810041821 73 178 0.0 0.0 0.00 0.00 0.00 94 1024.0
20200810035820 74 178 0.0 0.0 0.00 0.00 0.00 94 1023.8
20200810033820 74 178 0.0 0.0 0.00 0.00 0.00 94 1023.9
20200810031820 74 178 0.0 0.0 0.00 0.00 0.00 94 1023.8
20200810025819 74 178 0.0 0.0 0.00 0.00 0.00 94 1024.0
20200810023819 74 178 0.0 0.0 0.00 0.00 0.00 94 1024.2
20200810021817 74 178 0.0 0.0 0.00 0.00 0.00 94 1024.1
20200810015854 74 178 0.0 0.0 0.00 0.00 0.00 93 1024.0
20200810015817 74 178 0.0 0.0 0.00 0.00 0.00 93 1024.0
20200810013817 74 178 0.0 0.0 0.00 0.00 0.00 93 1024.0
20200810011815 74 178 0.0 0.0 0.00 0.00 0.00 93 1023.8
20200810005815 75 178 0.0 0.0 0.00 0.00 0.00 93 1023.6
20200810003815 75 178 0.0 0.0 0.00 0.00 0.00 93 1023.4
20200810001814 75 178 0.0 0.0 0.00 0.00 0.00 93 1023.2
20200809235856 75 178 0.0 5.0 0.00 0.00 0.00 94 1023.2
20200809235813 75 178 0.0 5.0 0.00 0.00 0.00 94 1023.2
20200809233812 74 178 0.0 5.0 0.00 0.00 0.00 93 1023.2
20200809221220 74 318 0.0 5.0 0.00 0.00 0.00 88 1023.9
20200809215220 79 68 1.0 0.0 0.00 0.00 0.00 87 1023.3
20200809213300 83 191 0.0 0.0 0.00 0.00 0.00 78 1023.0
20200809213219 83 191 0.0 0.0 0.00 0.00 0.00 78 1023.0
20200809211258 84 160 0.0 0.0 0.00 0.00 0.00 75 1023.2
20200809211219 84 160 0.0 0.0 0.00 0.00 0.00 75 1023.2
20200809205219 85 160 0.0 1.0 0.00 0.00 0.00 74 1023.3
20200809203233 86 160 0.0 1.0 0.00 0.00 0.00 71 1023.3
20200809201255 87 188 0.0 1.0 0.00 0.00 0.00 68 1023.3
20200809201218 87 188 0.0 1.0 0.00 0.00 0.00 68 1023.3
20200809195216 86 167 0.0 1.0 0.00 0.00 0.00 71 1023.4
20200809193216 87 191 0.0 1.0 0.00 0.00 0.00 68 1023.5
20200809191215 87 221 0.0 1.0 0.00 0.00 0.00 70 1023.8
20200809185215 89 160 0.0 1.0 0.00 0.00 0.00 63 1023.8
20200809183214 89 186 0.0 1.0 0.00 0.00 0.00 64 1024.1
20200809181213 87 160 1.0 1.0 0.00 0.00 0.00 68 1024.5
20200809175213 86 236 0.0 1.0 0.00 0.00 0.00 74 1024.8
20200809173212 86 159 0.0 1.0 0.00 0.00 0.00 69 1025.0
20200809171211 86 193 0.0 1.0 0.00 0.00 0.00 71 1025.0
20200809165211 85 218 0.0 1.0 0.00 0.00 0.00 74 1025.3
20200809163210 84 195 0.0 1.0 0.00 0.00 0.00 76 1025.5
20200809161211 83 224 0.0 1.0 0.00 0.00 0.00 77 1025.8
20200809155209 83 183 0.0 1.0 0.00 0.00 0.00 76 1026.1
20200809153208 83 153 0.0 1.0 0.00 0.00 0.00 77 1026.1
20200809151208 81 155 0.0 1.0 0.00 0.00 0.00 77 1026.1
20200809145210 80 160 0.0 1.0 0.00 0.00 0.00 82 1026.0
20200809143234 79 176 0.0 1.0 0.00 0.00 0.00 84 1025.9
20200809141206 78 151 0.0 1.0 0.00 0.00 0.00 85 1026.0
20200809135205 77 205 0.0 0.0 0.00 0.00 0.00 86 1026.2
20200809133206 75 190 0.0 0.0 0.00 0.00 0.00 89 1026.2
20200809131204 74 182 0.0 0.0 0.00 0.00 0.00 92 1026.2
20200809125250 73 191 0.0 0.0 0.00 0.00 0.00 93 1026.2
20200809125205 73 191 0.0 0.0 0.00 0.00 0.00 93 1026.2
20200809123203 72 205 0.0 0.0 0.00 0.00 0.00 93 1026.6
20200809121205 72 205 0.0 0.0 0.00 0.00 0.00 93 1026.6
20200809115202 71 205 0.0 0.0 0.00 0.00 0.00 93 1026.4
20200809113201 71 205 0.0 0.0 0.00 0.00 0.00 93 1026.3
20200809111201 70 205 0.0 0.0 0.00 0.00 0.00 93 1026.2